sensor_id;sensor_type;location;lat;lon;timestamp;P1;durP1;ratioP1;P2;durP2;ratioP2
52208;SDS011;38507;53.132;6.394;2022-07-29T00:01:45;3.85;;;0.90;;
52208;SDS011;38507;53.132;6.394;2022-07-29T00:04:11;5.43;;;1.10;;
52208;SDS011;38507;53.132;6.394;2022-07-29T00:06:37;5.78;;;1.00;;
52208;SDS011;38507;53.132;6.394;2022-07-29T00:09:03;2.78;;;1.20;;
52208;SDS011;38507;53.132;6.394;2022-07-29T00:11:28;1.38;;;0.60;;
52208;SDS011;38507;53.132;6.394;2022-07-29T00:13:54;3.75;;;0.95;;
52208;SDS011;38507;53.132;6.394;2022-07-29T00:16:19;3.50;;;0.93;;
52208;SDS011;38507;53.132;6.394;2022-07-29T00:18:45;3.47;;;1.25;;
52208;SDS011;38507;53.132;6.394;2022-07-29T00:21:11;3.55;;;0.95;;
52208;SDS011;38507;53.132;6.394;2022-07-29T00:23:37;3.88;;;1.38;;
52208;SDS011;38507;53.132;6.394;2022-07-29T00:26:03;6.50;;;0.90;;
52208;SDS011;38507;53.132;6.394;2022-07-29T00:28:29;3.60;;;1.02;;
52208;SDS011;38507;53.132;6.394;2022-07-29T00:30:54;5.47;;;1.02;;
52208;SDS011;38507;53.132;6.394;2022-07-29T00:33:20;2.22;;;0.70;;
52208;SDS011;38507;53.132;6.394;2022-07-29T00:35:47;5.60;;;0.77;;
52208;SDS011;38507;53.132;6.394;2022-07-29T00:38:16;3.78;;;1.10;;
52208;SDS011;38507;53.132;6.394;2022-07-29T00:40:43;3.53;;;1.00;;
52208;SDS011;38507;53.132;6.394;2022-07-29T00:43:10;3.38;;;1.00;;
52208;SDS011;38507;53.132;6.394;2022-07-29T00:45:37;1.70;;;0.60;;
52208;SDS011;38507;53.132;6.394;2022-07-29T00:48:03;2.13;;;0.80;;
52208;SDS011;38507;53.132;6.394;2022-07-29T00:50:30;2.65;;;1.00;;
52208;SDS011;38507;53.132;6.394;2022-07-29T00:52:57;5.65;;;1.08;;
52208;SDS011;38507;53.132;6.394;2022-07-29T00:55:23;4.82;;;0.90;;
52208;SDS011;38507;53.132;6.394;2022-07-29T00:57:49;2.75;;;0.80;;
52208;SDS011;38507;53.132;6.394;2022-07-29T01:00:16;3.65;;;1.08;;
52208;SDS011;38507;53.132;6.394;2022-07-29T01:02:46;3.28;;;1.13;;
52208;SDS011;38507;53.132;6.394;2022-07-29T01:05:13;5.35;;;0.95;;
52208;SDS011;38507;53.132;6.394;2022-07-29T01:07:40;2.55;;;1.23;;
52208;SDS011;38507;53.132;6.394;2022-07-29T01:10:08;4.85;;;1.02;;
52208;SDS011;38507;53.132;6.394;2022-07-29T01:12:35;5.40;;;1.20;;
52208;SDS011;38507;53.132;6.394;2022-07-29T01:15:03;3.30;;;1.27;;
52208;SDS011;38507;53.132;6.394;2022-07-29T01:17:42;6.63;;;1.00;;
52208;SDS011;38507;53.132;6.394;2022-07-29T01:20:26;7.70;;;1.20;;
52208;SDS011;38507;53.132;6.394;2022-07-29T01:26:28;2.75;;;0.98;;
52208;SDS011;38507;53.132;6.394;2022-07-29T01:29:16;2.22;;;1.10;;
52208;SDS011;38507;53.132;6.394;2022-07-29T01:31:50;3.80;;;1.05;;
52208;SDS011;38507;53.132;6.394;2022-07-29T01:34:50;5.72;;;0.98;;
52208;SDS011;38507;53.132;6.394;2022-07-29T01:40:02;4.53;;;0.90;;
52208;SDS011;38507;53.132;6.394;2022-07-29T01:42:32;4.20;;;0.90;;
52208;SDS011;38507;53.132;6.394;2022-07-29T01:45:04;5.55;;;1.30;;
52208;SDS011;38507;53.132;6.394;2022-07-29T01:47:40;3.95;;;1.13;;
52208;SDS011;38507;53.132;6.394;2022-07-29T01:50:11;3.90;;;0.93;;
52208;SDS011;38507;53.132;6.394;2022-07-29T01:52:45;3.97;;;0.90;;
52208;SDS011;38507;53.132;6.394;2022-07-29T01:55:17;6.20;;;1.00;;
52208;SDS011;38507;53.132;6.394;2022-07-29T01:57:48;3.72;;;0.80;;
52208;SDS011;38507;53.132;6.394;2022-07-29T02:00:14;5.18;;;1.13;;
52208;SDS011;38507;53.132;6.394;2022-07-29T02:02:42;3.10;;;0.93;;
52208;SDS011;38507;53.132;6.394;2022-07-29T02:05:10;3.33;;;1.15;;
52208;SDS011;38507;53.132;6.394;2022-07-29T02:07:42;5.20;;;1.20;;
52208;SDS011;38507;53.132;6.394;2022-07-29T02:10:09;3.45;;;1.10;;
52208;SDS011;38507;53.132;6.394;2022-07-29T02:12:37;5.90;;;1.20;;
52208;SDS011;38507;53.132;6.394;2022-07-29T02:15:04;3.33;;;1.05;;
52208;SDS011;38507;53.132;6.394;2022-07-29T02:17:38;8.32;;;1.45;;
52208;SDS011;38507;53.132;6.394;2022-07-29T02:20:07;3.83;;;1.13;;
52208;SDS011;38507;53.132;6.394;2022-07-29T02:22:35;1.98;;;1.25;;
52208;SDS011;38507;53.132;6.394;2022-07-29T02:25:04;4.22;;;1.30;;
52208;SDS011;38507;53.132;6.394;2022-07-29T02:27:33;4.28;;;1.00;;
52208;SDS011;38507;53.132;6.394;2022-07-29T02:30:00;1.98;;;1.05;;
52208;SDS011;38507;53.132;6.394;2022-07-29T02:32:28;4.07;;;1.33;;
52208;SDS011;38507;53.132;6.394;2022-07-29T02:34:56;5.72;;;1.20;;
52208;SDS011;38507;53.132;6.394;2022-07-29T02:37:23;5.05;;;1.23;;
52208;SDS011;38507;53.132;6.394;2022-07-29T02:39:51;5.97;;;1.23;;
52208;SDS011;38507;53.132;6.394;2022-07-29T02:42:18;1.58;;;0.93;;
52208;SDS011;38507;53.132;6.394;2022-07-29T02:44:47;6.53;;;1.38;;
52208;SDS011;38507;53.132;6.394;2022-07-29T02:55:33;3.88;;;0.90;;
52208;SDS011;38507;53.132;6.394;2022-07-29T02:58:01;4.28;;;1.10;;
52208;SDS011;38507;53.132;6.394;2022-07-29T03:00:31;3.95;;;0.90;;
52208;SDS011;38507;53.132;6.394;2022-07-29T03:03:00;2.90;;;1.10;;
52208;SDS011;38507;53.132;6.394;2022-07-29T03:05:30;3.80;;;1.08;;
52208;SDS011;38507;53.132;6.394;2022-07-29T03:07:58;2.13;;;1.00;;
52208;SDS011;38507;53.132;6.394;2022-07-29T03:10:27;4.65;;;1.10;;
52208;SDS011;38507;53.132;6.394;2022-07-29T03:12:54;3.17;;;1.17;;
52208;SDS011;38507;53.132;6.394;2022-07-29T03:15:21;4.25;;;1.10;;
52208;SDS011;38507;53.132;6.394;2022-07-29T03:17:47;2.45;;;1.00;;
52208;SDS011;38507;53.132;6.394;2022-07-29T03:20:13;5.75;;;1.10;;
52208;SDS011;38507;53.132;6.394;2022-07-29T03:22:40;2.92;;;1.00;;
52208;SDS011;38507;53.132;6.394;2022-07-29T03:25:15;2.60;;;1.02;;
52208;SDS011;38507;53.132;6.394;2022-07-29T03:27:43;9.20;;;1.15;;
52208;SDS011;38507;53.132;6.394;2022-07-29T03:30:09;4.20;;;1.15;;
52208;SDS011;38507;53.132;6.394;2022-07-29T03:32:36;4.22;;;1.02;;
52208;SDS011;38507;53.132;6.394;2022-07-29T03:35:03;6.38;;;1.08;;
52208;SDS011;38507;53.132;6.394;2022-07-29T03:37:29;6.68;;;1.25;;
52208;SDS011;38507;53.132;6.394;2022-07-29T03:39:56;4.35;;;1.30;;
52208;SDS011;38507;53.132;6.394;2022-07-29T03:42:23;3.13;;;1.05;;
52208;SDS011;38507;53.132;6.394;2022-07-29T03:44:53;2.28;;;0.90;;
52208;SDS011;38507;53.132;6.394;2022-07-29T03:47:21;3.58;;;1.02;;
52208;SDS011;38507;53.132;6.394;2022-07-29T03:49:51;4.93;;;1.20;;
52208;SDS011;38507;53.132;6.394;2022-07-29T03:52:18;5.03;;;1.15;;
52208;SDS011;38507;53.132;6.394;2022-07-29T03:54:46;3.90;;;1.13;;
52208;SDS011;38507;53.132;6.394;2022-07-29T03:57:12;4.82;;;1.10;;
52208;SDS011;38507;53.132;6.394;2022-07-29T03:59:39;5.50;;;0.93;;
52208;SDS011;38507;53.132;6.394;2022-07-29T04:02:06;5.78;;;1.50;;
52208;SDS011;38507;53.132;6.394;2022-07-29T04:04:35;4.00;;;1.08;;
52208;SDS011;38507;53.132;6.394;2022-07-29T04:07:02;3.40;;;1.05;;
52208;SDS011;38507;53.132;6.394;2022-07-29T04:09:29;5.50;;;1.13;;
52208;SDS011;38507;53.132;6.394;2022-07-29T04:11:55;6.32;;;1.27;;
52208;SDS011;38507;53.132;6.394;2022-07-29T04:14:20;2.40;;;0.93;;
52208;SDS011;38507;53.132;6.394;2022-07-29T04:16:46;7.28;;;1.30;;
52208;SDS011;38507;53.132;6.394;2022-07-29T04:19:12;3.45;;;1.05;;
52208;SDS011;38507;53.132;6.394;2022-07-29T04:21:40;5.40;;;1.20;;
52208;SDS011;38507;53.132;6.394;2022-07-29T04:24:06;6.10;;;1.10;;
52208;SDS011;38507;53.132;6.394;2022-07-29T04:26:33;5.78;;;1.05;;
52208;SDS011;38507;53.132;6.394;2022-07-29T04:28:59;3.53;;;0.90;;
52208;SDS011;38507;53.132;6.394;2022-07-29T04:31:25;5.28;;;1.02;;
52208;SDS011;38507;53.132;6.394;2022-07-29T04:33:51;3.72;;;1.10;;
52208;SDS011;38507;53.132;6.394;2022-07-29T04:36:17;2.67;;;1.15;;
52208;SDS011;38507;53.132;6.394;2022-07-29T04:38:42;4.72;;;1.45;;
52208;SDS011;38507;53.132;6.394;2022-07-29T04:41:08;4.53;;;1.30;;
52208;SDS011;38507;53.132;6.394;2022-07-29T04:43:34;7.10;;;1.25;;
52208;SDS011;38507;53.132;6.394;2022-07-29T04:46:00;4.32;;;1.30;;
52208;SDS011;38507;53.132;6.394;2022-07-29T04:48:27;3.60;;;1.10;;
52208;SDS011;38507;53.132;6.394;2022-07-29T04:50:52;7.60;;;1.30;;
52208;SDS011;38507;53.132;6.394;2022-07-29T04:53:18;6.10;;;1.20;;
52208;SDS011;38507;53.132;6.394;2022-07-29T04:55:43;4.95;;;1.30;;
52208;SDS011;38507;53.132;6.394;2022-07-29T04:58:10;4.97;;;1.02;;
52208;SDS011;38507;53.132;6.394;2022-07-29T05:00:36;7.72;;;1.10;;
52208;SDS011;38507;53.132;6.394;2022-07-29T05:03:02;6.47;;;1.70;;
52208;SDS011;38507;53.132;6.394;2022-07-29T05:05:28;3.17;;;1.10;;
52208;SDS011;38507;53.132;6.394;2022-07-29T05:07:54;7.03;;;1.20;;
52208;SDS011;38507;53.132;6.394;2022-07-29T05:10:20;4.28;;;1.25;;
52208;SDS011;38507;53.132;6.394;2022-07-29T05:12:45;5.80;;;1.15;;
52208;SDS011;38507;53.132;6.394;2022-07-29T05:15:11;2.92;;;1.00;;
52208;SDS011;38507;53.132;6.394;2022-07-29T05:17:37;6.50;;;1.02;;
52208;SDS011;38507;53.132;6.394;2022-07-29T05:20:03;5.00;;;1.25;;
52208;SDS011;38507;53.132;6.394;2022-07-29T05:22:29;5.72;;;1.10;;
52208;SDS011;38507;53.132;6.394;2022-07-29T05:24:55;2.70;;;1.13;;
52208;SDS011;38507;53.132;6.394;2022-07-29T05:27:21;6.50;;;1.33;;
52208;SDS011;38507;53.132;6.394;2022-07-29T05:29:47;4.20;;;1.13;;
52208;SDS011;38507;53.132;6.394;2022-07-29T05:32:13;6.50;;;1.13;;
52208;SDS011;38507;53.132;6.394;2022-07-29T05:34:39;6.72;;;1.33;;
52208;SDS011;38507;53.132;6.394;2022-07-29T05:37:05;4.70;;;1.33;;
52208;SDS011;38507;53.132;6.394;2022-07-29T05:39:31;10.25;;;1.42;;
52208;SDS011;38507;53.132;6.394;2022-07-29T05:41:56;3.55;;;1.15;;
52208;SDS011;38507;53.132;6.394;2022-07-29T05:44:22;4.38;;;1.50;;
52208;SDS011;38507;53.132;6.394;2022-07-29T05:46:47;7.75;;;1.10;;
52208;SDS011;38507;53.132;6.394;2022-07-29T05:49:13;5.38;;;1.38;;
52208;SDS011;38507;53.132;6.394;2022-07-29T05:51:39;10.32;;;1.98;;
52208;SDS011;38507;53.132;6.394;2022-07-29T05:54:05;3.38;;;1.15;;
52208;SDS011;38507;53.132;6.394;2022-07-29T05:56:30;10.15;;;1.30;;
52208;SDS011;38507;53.132;6.394;2022-07-29T05:58:56;6.47;;;1.30;;
52208;SDS011;38507;53.132;6.394;2022-07-29T06:01:22;8.00;;;1.50;;
52208;SDS011;38507;53.132;6.394;2022-07-29T06:03:47;6.22;;;1.42;;
52208;SDS011;38507;53.132;6.394;2022-07-29T06:06:13;5.60;;;1.85;;
52208;SDS011;38507;53.132;6.394;2022-07-29T06:08:39;8.13;;;1.27;;
52208;SDS011;38507;53.132;6.394;2022-07-29T06:11:05;5.55;;;1.10;;
52208;SDS011;38507;53.132;6.394;2022-07-29T06:13:32;5.95;;;1.48;;
52208;SDS011;38507;53.132;6.394;2022-07-29T06:15:57;10.35;;;1.20;;
52208;SDS011;38507;53.132;6.394;2022-07-29T06:18:23;6.93;;;1.33;;
52208;SDS011;38507;53.132;6.394;2022-07-29T06:20:52;7.28;;;1.40;;
52208;SDS011;38507;53.132;6.394;2022-07-29T06:23:18;4.10;;;1.02;;
52208;SDS011;38507;53.132;6.394;2022-07-29T06:25:45;5.18;;;1.17;;
52208;SDS011;38507;53.132;6.394;2022-07-29T06:28:11;3.25;;;1.30;;
52208;SDS011;38507;53.132;6.394;2022-07-29T06:30:37;7.40;;;1.38;;
52208;SDS011;38507;53.132;6.394;2022-07-29T06:33:04;9.70;;;1.25;;
52208;SDS011;38507;53.132;6.394;2022-07-29T06:35:30;8.35;;;1.55;;
52208;SDS011;38507;53.132;6.394;2022-07-29T06:37:57;5.45;;;1.13;;
52208;SDS011;38507;53.132;6.394;2022-07-29T06:40:23;9.10;;;1.40;;
52208;SDS011;38507;53.132;6.394;2022-07-29T06:43:07;3.93;;;1.40;;
52208;SDS011;38507;53.132;6.394;2022-07-29T06:45:33;5.85;;;1.40;;
52208;SDS011;38507;53.132;6.394;2022-07-29T06:47:59;6.15;;;1.60;;
52208;SDS011;38507;53.132;6.394;2022-07-29T06:50:25;5.25;;;1.38;;
52208;SDS011;38507;53.132;6.394;2022-07-29T06:52:51;3.45;;;1.30;;
52208;SDS011;38507;53.132;6.394;2022-07-29T06:55:17;4.70;;;1.23;;
52208;SDS011;38507;53.132;6.394;2022-07-29T06:57:44;7.10;;;1.60;;
52208;SDS011;38507;53.132;6.394;2022-07-29T07:00:10;8.27;;;1.30;;
52208;SDS011;38507;53.132;6.394;2022-07-29T07:02:36;5.28;;;1.30;;
52208;SDS011;38507;53.132;6.394;2022-07-29T07:05:02;3.83;;;1.33;;
52208;SDS011;38507;53.132;6.394;2022-07-29T07:07:28;7.60;;;1.30;;
52208;SDS011;38507;53.132;6.394;2022-07-29T07:09:53;7.70;;;1.50;;
52208;SDS011;38507;53.132;6.394;2022-07-29T07:12:19;5.57;;;1.23;;
52208;SDS011;38507;53.132;6.394;2022-07-29T07:14:45;5.78;;;1.52;;
52208;SDS011;38507;53.132;6.394;2022-07-29T07:17:10;7.00;;;1.27;;
52208;SDS011;38507;53.132;6.394;2022-07-29T07:19:36;5.40;;;1.40;;
52208;SDS011;38507;53.132;6.394;2022-07-29T07:22:01;6.28;;;1.58;;
52208;SDS011;38507;53.132;6.394;2022-07-29T07:24:27;5.82;;;1.45;;
52208;SDS011;38507;53.132;6.394;2022-07-29T07:26:53;6.32;;;1.50;;
52208;SDS011;38507;53.132;6.394;2022-07-29T07:29:18;6.43;;;1.80;;
52208;SDS011;38507;53.132;6.394;2022-07-29T07:31:44;5.07;;;1.55;;
52208;SDS011;38507;53.132;6.394;2022-07-29T07:34:10;5.28;;;1.52;;
52208;SDS011;38507;53.132;6.394;2022-07-29T07:36:36;5.15;;;1.38;;
52208;SDS011;38507;53.132;6.394;2022-07-29T07:39:01;7.18;;;1.42;;
52208;SDS011;38507;53.132;6.394;2022-07-29T07:41:28;4.13;;;1.30;;
52208;SDS011;38507;53.132;6.394;2022-07-29T07:43:53;4.50;;;1.40;;
52208;SDS011;38507;53.132;6.394;2022-07-29T07:46:19;7.65;;;1.67;;
52208;SDS011;38507;53.132;6.394;2022-07-29T07:48:45;4.82;;;1.50;;
52208;SDS011;38507;53.132;6.394;2022-07-29T07:51:10;6.00;;;1.45;;
52208;SDS011;38507;53.132;6.394;2022-07-29T07:53:36;4.75;;;1.30;;
52208;SDS011;38507;53.132;6.394;2022-07-29T07:56:02;8.25;;;1.65;;
52208;SDS011;38507;53.132;6.394;2022-07-29T07:58:29;6.18;;;1.42;;
52208;SDS011;38507;53.132;6.394;2022-07-29T08:00:54;5.22;;;1.70;;
52208;SDS011;38507;53.132;6.394;2022-07-29T08:03:20;3.97;;;1.40;;
52208;SDS011;38507;53.132;6.394;2022-07-29T08:05:46;5.85;;;1.50;;
52208;SDS011;38507;53.132;6.394;2022-07-29T08:08:12;5.25;;;1.50;;
52208;SDS011;38507;53.132;6.394;2022-07-29T08:10:38;7.60;;;2.15;;
52208;SDS011;38507;53.132;6.394;2022-07-29T08:13:19;6.53;;;1.40;;
52208;SDS011;38507;53.132;6.394;2022-07-29T08:15:46;6.88;;;1.67;;
52208;SDS011;38507;53.132;6.394;2022-07-29T08:18:12;8.85;;;2.13;;
52208;SDS011;38507;53.132;6.394;2022-07-29T08:20:38;7.05;;;1.48;;
52208;SDS011;38507;53.132;6.394;2022-07-29T08:23:05;5.05;;;1.45;;
52208;SDS011;38507;53.132;6.394;2022-07-29T08:25:32;7.10;;;1.67;;
52208;SDS011;38507;53.132;6.394;2022-07-29T08:27:58;4.47;;;1.50;;
52208;SDS011;38507;53.132;6.394;2022-07-29T08:30:24;8.32;;;1.35;;
52208;SDS011;38507;53.132;6.394;2022-07-29T08:32:49;7.20;;;1.25;;
52208;SDS011;38507;53.132;6.394;2022-07-29T08:35:18;5.47;;;1.48;;
52208;SDS011;38507;53.132;6.394;2022-07-29T08:37:44;8.48;;;1.38;;
52208;SDS011;38507;53.132;6.394;2022-07-29T08:40:10;5.85;;;1.40;;
52208;SDS011;38507;53.132;6.394;2022-07-29T08:42:36;4.82;;;1.25;;
52208;SDS011;38507;53.132;6.394;2022-07-29T08:45:02;5.55;;;1.30;;
52208;SDS011;38507;53.132;6.394;2022-07-29T08:47:29;6.00;;;1.40;;
52208;SDS011;38507;53.132;6.394;2022-07-29T08:49:55;4.93;;;1.40;;
52208;SDS011;38507;53.132;6.394;2022-07-29T08:52:21;6.38;;;1.30;;
52208;SDS011;38507;53.132;6.394;2022-07-29T08:54:50;8.80;;;1.70;;
52208;SDS011;38507;53.132;6.394;2022-07-29T08:57:17;4.18;;;1.35;;
52208;SDS011;38507;53.132;6.394;2022-07-29T08:59:44;9.10;;;1.63;;
52208;SDS011;38507;53.132;6.394;2022-07-29T09:02:15;6.78;;;1.50;;
52208;SDS011;38507;53.132;6.394;2022-07-29T09:04:44;4.88;;;1.65;;
52208;SDS011;38507;53.132;6.394;2022-07-29T09:07:11;6.70;;;1.58;;
52208;SDS011;38507;53.132;6.394;2022-07-29T09:09:43;5.22;;;1.83;;
52208;SDS011;38507;53.132;6.394;2022-07-29T09:12:10;4.60;;;1.35;;
52208;SDS011;38507;53.132;6.394;2022-07-29T09:14:39;10.05;;;2.00;;
52208;SDS011;38507;53.132;6.394;2022-07-29T09:17:05;4.18;;;1.35;;
52208;SDS011;38507;53.132;6.394;2022-07-29T09:19:32;4.10;;;1.25;;
52208;SDS011;38507;53.132;6.394;2022-07-29T09:22:00;6.88;;;2.22;;
52208;SDS011;38507;53.132;6.394;2022-07-29T09:24:40;10.48;;;1.83;;
52208;SDS011;38507;53.132;6.394;2022-07-29T09:27:09;5.28;;;1.60;;
52208;SDS011;38507;53.132;6.394;2022-07-29T09:29:37;4.03;;;1.50;;
52208;SDS011;38507;53.132;6.394;2022-07-29T09:32:05;5.57;;;1.30;;
52208;SDS011;38507;53.132;6.394;2022-07-29T09:34:34;8.55;;;1.70;;
52208;SDS011;38507;53.132;6.394;2022-07-29T09:37:00;7.13;;;1.80;;
52208;SDS011;38507;53.132;6.394;2022-07-29T09:39:26;7.65;;;1.65;;
52208;SDS011;38507;53.132;6.394;2022-07-29T09:41:55;7.00;;;1.63;;
52208;SDS011;38507;53.132;6.394;2022-07-29T09:44:22;9.20;;;1.70;;
52208;SDS011;38507;53.132;6.394;2022-07-29T09:49:49;6.30;;;2.00;;
52208;SDS011;38507;53.132;6.394;2022-07-29T09:52:23;11.73;;;1.80;;
52208;SDS011;38507;53.132;6.394;2022-07-29T09:54:49;10.27;;;2.22;;
52208;SDS011;38507;53.132;6.394;2022-07-29T10:00:11;5.72;;;1.60;;
52208;SDS011;38507;53.132;6.394;2022-07-29T10:02:39;7.20;;;1.48;;
52208;SDS011;38507;53.132;6.394;2022-07-29T10:05:15;7.78;;;1.80;;
52208;SDS011;38507;53.132;6.394;2022-07-29T10:07:47;7.18;;;2.05;;
52208;SDS011;38507;53.132;6.394;2022-07-29T10:10:18;9.75;;;2.25;;
52208;SDS011;38507;53.132;6.394;2022-07-29T10:12:59;6.70;;;1.92;;
52208;SDS011;38507;53.132;6.394;2022-07-29T10:15:32;7.28;;;1.67;;
52208;SDS011;38507;53.132;6.394;2022-07-29T10:18:02;8.43;;;1.88;;
52208;SDS011;38507;53.132;6.394;2022-07-29T10:20:28;10.55;;;1.73;;
52208;SDS011;38507;53.132;6.394;2022-07-29T10:22:53;5.97;;;1.58;;
52208;SDS011;38507;53.132;6.394;2022-07-29T10:25:20;5.53;;;1.55;;
52208;SDS011;38507;53.132;6.394;2022-07-29T10:27:47;8.45;;;1.58;;
52208;SDS011;38507;53.132;6.394;2022-07-29T10:30:14;6.97;;;2.10;;
52208;SDS011;38507;53.132;6.394;2022-07-29T10:35:12;8.55;;;2.03;;
52208;SDS011;38507;53.132;6.394;2022-07-29T10:43:35;3.85;;;1.48;;
52208;SDS011;38507;53.132;6.394;2022-07-29T10:46:05;7.78;;;1.70;;
52208;SDS011;38507;53.132;6.394;2022-07-29T10:48:31;6.55;;;1.60;;
52208;SDS011;38507;53.132;6.394;2022-07-29T10:51:01;8.27;;;1.80;;
52208;SDS011;38507;53.132;6.394;2022-07-29T10:56:24;13.85;;;2.25;;
52208;SDS011;38507;53.132;6.394;2022-07-29T11:01:56;9.70;;;1.67;;
52208;SDS011;38507;53.132;6.394;2022-07-29T11:07:09;8.10;;;1.75;;
52208;SDS011;38507;53.132;6.394;2022-07-29T11:09:35;5.50;;;1.40;;
52208;SDS011;38507;53.132;6.394;2022-07-29T11:12:01;6.50;;;1.92;;
52208;SDS011;38507;53.132;6.394;2022-07-29T11:14:54;6.93;;;1.70;;
52208;SDS011;38507;53.132;6.394;2022-07-29T11:17:21;5.45;;;1.60;;
52208;SDS011;38507;53.132;6.394;2022-07-29T11:19:47;12.82;;;2.00;;
52208;SDS011;38507;53.132;6.394;2022-07-29T11:22:31;8.70;;;1.73;;
52208;SDS011;38507;53.132;6.394;2022-07-29T11:25:12;9.23;;;1.60;;
52208;SDS011;38507;53.132;6.394;2022-07-29T11:27:38;5.57;;;1.70;;
52208;SDS011;38507;53.132;6.394;2022-07-29T11:30:04;7.40;;;1.67;;
52208;SDS011;38507;53.132;6.394;2022-07-29T11:32:40;6.78;;;2.08;;
52208;SDS011;38507;53.132;6.394;2022-07-29T11:37:45;5.68;;;1.45;;
52208;SDS011;38507;53.132;6.394;2022-07-29T11:40:12;7.22;;;2.00;;
52208;SDS011;38507;53.132;6.394;2022-07-29T11:42:41;6.85;;;1.60;;
52208;SDS011;38507;53.132;6.394;2022-07-29T11:47:41;5.55;;;1.83;;
52208;SDS011;38507;53.132;6.394;2022-07-29T11:50:11;7.07;;;1.98;;
52208;SDS011;38507;53.132;6.394;2022-07-29T11:55:08;9.38;;;1.88;;
52208;SDS011;38507;53.132;6.394;2022-07-29T11:57:38;8.10;;;1.95;;
52208;SDS011;38507;53.132;6.394;2022-07-29T12:00:20;10.32;;;2.60;;
52208;SDS011;38507;53.132;6.394;2022-07-29T12:02:50;9.10;;;2.30;;
52208;SDS011;38507;53.132;6.394;2022-07-29T12:05:16;6.72;;;2.15;;
52208;SDS011;38507;53.132;6.394;2022-07-29T12:07:42;6.97;;;2.10;;
52208;SDS011;38507;53.132;6.394;2022-07-29T12:10:08;7.55;;;1.80;;
52208;SDS011;38507;53.132;6.394;2022-07-29T12:12:34;6.30;;;1.80;;
52208;SDS011;38507;53.132;6.394;2022-07-29T12:15:10;3.35;;;1.75;;
52208;SDS011;38507;53.132;6.394;2022-07-29T12:17:40;7.78;;;1.80;;
52208;SDS011;38507;53.132;6.394;2022-07-29T12:20:06;7.72;;;2.05;;
52208;SDS011;38507;53.132;6.394;2022-07-29T12:25:06;5.20;;;1.83;;
52208;SDS011;38507;53.132;6.394;2022-07-29T12:27:34;5.45;;;1.90;;
52208;SDS011;38507;53.132;6.394;2022-07-29T12:30:02;7.32;;;1.80;;
52208;SDS011;38507;53.132;6.394;2022-07-29T12:32:37;7.13;;;1.95;;
52208;SDS011;38507;53.132;6.394;2022-07-29T12:35:05;7.28;;;1.80;;
52208;SDS011;38507;53.132;6.394;2022-07-29T12:37:33;8.02;;;1.98;;
52208;SDS011;38507;53.132;6.394;2022-07-29T12:40:01;5.15;;;1.58;;
52208;SDS011;38507;53.132;6.394;2022-07-29T12:42:27;6.78;;;1.90;;
52208;SDS011;38507;53.132;6.394;2022-07-29T12:44:52;8.75;;;2.05;;
52208;SDS011;38507;53.132;6.394;2022-07-29T12:47:18;5.90;;;2.10;;
52208;SDS011;38507;53.132;6.394;2022-07-29T12:49:45;6.68;;;1.60;;
52208;SDS011;38507;53.132;6.394;2022-07-29T12:52:28;7.75;;;1.92;;
52208;SDS011;38507;53.132;6.394;2022-07-29T12:54:55;8.55;;;1.98;;
52208;SDS011;38507;53.132;6.394;2022-07-29T12:57:22;4.97;;;1.70;;
52208;SDS011;38507;53.132;6.394;2022-07-29T13:00:00;6.97;;;1.30;;
52208;SDS011;38507;53.132;6.394;2022-07-29T13:02:35;14.73;;;1.92;;
52208;SDS011;38507;53.132;6.394;2022-07-29T13:05:02;5.93;;;1.55;;
52208;SDS011;38507;53.132;6.394;2022-07-29T13:07:30;7.30;;;1.30;;
52208;SDS011;38507;53.132;6.394;2022-07-29T13:13:00;7.10;;;1.35;;
52208;SDS011;38507;53.132;6.394;2022-07-29T13:15:29;5.90;;;1.63;;
52208;SDS011;38507;53.132;6.394;2022-07-29T13:17:55;4.78;;;1.20;;
52208;SDS011;38507;53.132;6.394;2022-07-29T13:20:26;9.27;;;1.45;;
52208;SDS011;38507;53.132;6.394;2022-07-29T13:22:57;4.38;;;1.30;;
52208;SDS011;38507;53.132;6.394;2022-07-29T13:25:31;7.22;;;1.80;;
52208;SDS011;38507;53.132;6.394;2022-07-29T13:27:58;13.38;;;1.38;;
52208;SDS011;38507;53.132;6.394;2022-07-29T13:30:24;6.43;;;1.38;;
52208;SDS011;38507;53.132;6.394;2022-07-29T13:32:51;5.22;;;1.30;;
52208;SDS011;38507;53.132;6.394;2022-07-29T13:35:20;7.45;;;1.35;;
52208;SDS011;38507;53.132;6.394;2022-07-29T13:37:46;5.03;;;1.63;;
52208;SDS011;38507;53.132;6.394;2022-07-29T13:40:12;4.88;;;1.20;;
52208;SDS011;38507;53.132;6.394;2022-07-29T13:42:50;5.38;;;1.70;;
52208;SDS011;38507;53.132;6.394;2022-07-29T13:45:18;7.13;;;1.65;;
52208;SDS011;38507;53.132;6.394;2022-07-29T13:47:44;5.88;;;2.20;;
52208;SDS011;38507;53.132;6.394;2022-07-29T13:50:09;6.82;;;1.83;;
52208;SDS011;38507;53.132;6.394;2022-07-29T13:52:35;5.78;;;1.23;;
52208;SDS011;38507;53.132;6.394;2022-07-29T13:55:02;3.78;;;1.40;;
52208;SDS011;38507;53.132;6.394;2022-07-29T13:57:29;7.97;;;2.75;;
52208;SDS011;38507;53.132;6.394;2022-07-29T13:59:54;9.55;;;2.00;;
52208;SDS011;38507;53.132;6.394;2022-07-29T14:02:20;7.03;;;1.75;;
52208;SDS011;38507;53.132;6.394;2022-07-29T14:04:46;8.82;;;1.40;;
52208;SDS011;38507;53.132;6.394;2022-07-29T14:07:12;4.45;;;1.40;;
52208;SDS011;38507;53.132;6.394;2022-07-29T14:09:38;9.43;;;1.50;;
52208;SDS011;38507;53.132;6.394;2022-07-29T14:12:04;5.85;;;1.35;;
52208;SDS011;38507;53.132;6.394;2022-07-29T14:14:29;4.70;;;1.30;;
52208;SDS011;38507;53.132;6.394;2022-07-29T14:16:57;7.20;;;1.30;;
52208;SDS011;38507;53.132;6.394;2022-07-29T14:19:24;7.72;;;1.52;;
52208;SDS011;38507;53.132;6.394;2022-07-29T14:21:50;7.32;;;1.50;;
52208;SDS011;38507;53.132;6.394;2022-07-29T14:24:15;7.20;;;1.80;;
52208;SDS011;38507;53.132;6.394;2022-07-29T14:26:41;6.80;;;1.67;;
52208;SDS011;38507;53.132;6.394;2022-07-29T14:29:07;8.32;;;1.67;;
52208;SDS011;38507;53.132;6.394;2022-07-29T14:31:32;7.22;;;1.38;;
52208;SDS011;38507;53.132;6.394;2022-07-29T14:33:58;8.98;;;1.20;;
52208;SDS011;38507;53.132;6.394;2022-07-29T14:36:24;7.30;;;1.65;;
52208;SDS011;38507;53.132;6.394;2022-07-29T14:38:49;7.43;;;1.80;;
52208;SDS011;38507;53.132;6.394;2022-07-29T14:41:15;5.75;;;1.38;;
52208;SDS011;38507;53.132;6.394;2022-07-29T14:43:40;6.43;;;1.67;;
52208;SDS011;38507;53.132;6.394;2022-07-29T14:46:06;7.60;;;1.80;;
52208;SDS011;38507;53.132;6.394;2022-07-29T14:48:32;6.85;;;1.48;;
52208;SDS011;38507;53.132;6.394;2022-07-29T14:50:58;4.60;;;1.38;;
52208;SDS011;38507;53.132;6.394;2022-07-29T14:53:24;6.95;;;1.20;;
52208;SDS011;38507;53.132;6.394;2022-07-29T14:55:50;9.48;;;1.50;;
52208;SDS011;38507;53.132;6.394;2022-07-29T14:58:15;3.25;;;1.27;;
52208;SDS011;38507;53.132;6.394;2022-07-29T15:00:41;5.20;;;1.67;;
52208;SDS011;38507;53.132;6.394;2022-07-29T15:03:07;7.07;;;1.35;;
52208;SDS011;38507;53.132;6.394;2022-07-29T15:05:35;10.43;;;1.55;;
52208;SDS011;38507;53.132;6.394;2022-07-29T15:08:01;4.95;;;1.33;;
52208;SDS011;38507;53.132;6.394;2022-07-29T15:10:27;12.68;;;1.83;;
52208;SDS011;38507;53.132;6.394;2022-07-29T15:12:53;6.55;;;1.65;;
52208;SDS011;38507;53.132;6.394;2022-07-29T15:15:19;6.40;;;1.60;;
52208;SDS011;38507;53.132;6.394;2022-07-29T15:17:45;5.28;;;1.20;;
52208;SDS011;38507;53.132;6.394;2022-07-29T15:20:11;8.23;;;1.58;;
52208;SDS011;38507;53.132;6.394;2022-07-29T15:22:37;3.92;;;1.30;;
52208;SDS011;38507;53.132;6.394;2022-07-29T15:25:03;4.57;;;1.40;;
52208;SDS011;38507;53.132;6.394;2022-07-29T15:27:30;7.43;;;2.20;;
52208;SDS011;38507;53.132;6.394;2022-07-29T15:29:55;6.00;;;1.70;;
52208;SDS011;38507;53.132;6.394;2022-07-29T15:32:21;8.85;;;1.58;;
52208;SDS011;38507;53.132;6.394;2022-07-29T15:34:47;4.90;;;1.60;;
52208;SDS011;38507;53.132;6.394;2022-07-29T15:37:13;8.95;;;1.27;;
52208;SDS011;38507;53.132;6.394;2022-07-29T15:39:38;6.45;;;1.33;;
52208;SDS011;38507;53.132;6.394;2022-07-29T15:42:04;8.73;;;1.63;;